createdAt,value
2023-04-12T00:00:52.789Z,38.65
2023-04-12T00:03:21.360Z,38.66
2023-04-12T00:05:48.650Z,38.67
2023-04-12T00:08:16.717Z,38.75
2023-04-12T00:10:43.634Z,38.73
2023-04-12T00:13:10.205Z,38.87
2023-04-12T00:15:37.081Z,38.77
2023-04-12T00:18:03.925Z,38.80
2023-04-12T00:20:30.553Z,39.00
2023-04-12T00:22:57.763Z,38.73
2023-04-12T00:25:24.613Z,38.75
2023-04-12T00:27:51.426Z,38.77
2023-04-12T00:30:18.177Z,38.95
2023-04-12T00:32:44.963Z,38.78
2023-04-12T00:35:11.480Z,38.83
2023-04-12T00:37:38.759Z,38.94
2023-04-12T00:40:08.366Z,38.99
2023-04-12T00:42:36.990Z,38.76
2023-04-12T00:45:04.276Z,38.71
2023-04-12T00:47:30.979Z,38.83
2023-04-12T00:49:58.969Z,38.92
2023-04-12T00:52:28.147Z,38.85
2023-04-12T00:54:54.882Z,39.16
2023-04-12T00:57:22.382Z,38.84
2023-04-12T00:59:49.203Z,38.76
2023-04-12T01:02:17.504Z,38.83
2023-04-12T01:04:45.087Z,38.73
2023-04-12T01:07:19.093Z,38.94
2023-04-12T01:09:52.078Z,38.95
2023-04-12T01:12:43.719Z,38.81
2023-04-12T01:15:16.323Z,38.83
2023-04-12T01:18:08.413Z,38.90
2023-04-12T01:20:44.855Z,38.87
2023-04-12T01:23:43.638Z,38.84
2023-04-12T01:28:44.979Z,38.84
2023-04-12T01:31:14.041Z,38.84
2023-04-12T01:33:43.211Z,38.94
2023-04-12T01:36:16.843Z,38.90
2023-04-12T01:38:43.732Z,38.78
2023-04-12T01:41:10.471Z,38.68
2023-04-12T01:43:44.475Z,38.76
2023-04-12T01:46:12.953Z,38.80
2023-04-12T01:48:39.738Z,38.77
2023-04-12T01:51:11.618Z,38.81
2023-04-12T01:53:44.699Z,38.87
2023-04-12T01:56:12.192Z,38.88
2023-04-12T01:58:41.391Z,38.96
2023-04-12T02:01:09.337Z,38.76
2023-04-12T02:03:37.590Z,38.76
2023-04-12T02:06:05.934Z,38.99
2023-04-12T02:08:33.281Z,38.76
2023-04-12T02:10:59.786Z,38.85
2023-04-12T02:13:26.698Z,38.75
2023-04-12T02:15:54.867Z,38.86
2023-04-12T02:18:21.739Z,38.86
2023-04-12T02:20:49.792Z,38.93
2023-04-12T02:23:16.378Z,38.91
2023-04-12T02:25:44.138Z,38.88
2023-04-12T02:28:10.627Z,38.93
2023-04-12T02:30:38.374Z,38.93
2023-04-12T02:33:06.211Z,38.82
2023-04-12T02:35:32.899Z,38.81
2023-04-12T02:37:59.375Z,38.81
2023-04-12T02:40:26.042Z,38.82
2023-04-12T02:42:52.537Z,38.96
2023-04-12T02:45:18.995Z,38.90
2023-04-12T02:47:45.538Z,38.97
2023-04-12T02:50:12.057Z,38.82
2023-04-12T02:52:38.671Z,38.88
2023-04-12T02:55:05.681Z,38.99
2023-04-12T02:57:32.192Z,38.85
2023-04-12T02:59:58.675Z,38.88
2023-04-12T03:02:26.062Z,38.85
2023-04-12T03:04:53.289Z,38.91
2023-04-12T03:07:22.050Z,38.84
2023-04-12T03:09:50.612Z,38.88
2023-04-12T03:12:17.299Z,38.97
2023-04-12T03:14:43.862Z,39.04
2023-04-12T03:17:10.961Z,38.88
2023-04-12T03:19:37.715Z,38.97
2023-04-12T03:22:04.639Z,38.88
2023-04-12T03:24:34.836Z,39.03
2023-04-12T03:27:05.672Z,39.02
2023-04-12T03:29:32.336Z,38.83
2023-04-12T03:31:59.674Z,38.96
2023-04-12T03:34:32.368Z,39.01
2023-04-12T03:37:00.974Z,39.07
2023-04-12T03:39:28.083Z,39.22
2023-04-12T03:41:55.536Z,39.06
2023-04-12T03:44:22.591Z,39.20
2023-04-12T03:46:49.189Z,39.38
2023-04-12T03:49:16.696Z,39.45
2023-04-12T03:51:43.905Z,39.39
2023-04-12T03:54:11.696Z,39.36
2023-04-12T03:56:38.774Z,39.29
2023-04-12T03:59:07.721Z,39.30
2023-04-12T04:01:35.193Z,39.33
2023-04-12T04:04:03.032Z,39.22
2023-04-12T04:06:30.014Z,39.28
2023-04-12T04:08:57.859Z,39.19
2023-04-12T04:11:25.539Z,39.25
2023-04-12T04:13:52.102Z,39.25
2023-04-12T04:16:18.753Z,39.13
2023-04-12T04:18:45.411Z,39.14
2023-04-12T04:21:11.942Z,39.33
2023-04-12T04:23:38.901Z,39.28
2023-04-12T04:26:11.950Z,39.21
2023-04-12T04:28:39.775Z,39.27
2023-04-12T04:31:06.621Z,39.24
2023-04-12T04:33:33.702Z,39.27
2023-04-12T04:36:01.008Z,39.37
2023-04-12T04:38:28.275Z,39.26
2023-04-12T04:40:55.252Z,39.42
2023-04-12T04:43:22.180Z,39.45
2023-04-12T04:45:54.588Z,39.29
2023-04-12T04:48:21.366Z,39.30
2023-04-12T04:50:48.136Z,39.36
2023-04-12T04:53:18.640Z,39.49
2023-04-12T04:55:45.336Z,39.41
2023-04-12T04:58:12.598Z,39.29
2023-04-12T05:00:39.329Z,39.43
2023-04-12T05:03:06.319Z,39.65
2023-04-12T05:05:33.373Z,39.57
2023-04-12T05:07:59.955Z,39.48
2023-04-12T05:10:26.549Z,39.59
2023-04-12T05:12:53.145Z,39.50
2023-04-12T05:15:21.285Z,39.53
2023-04-12T05:17:47.930Z,39.72
2023-04-12T05:20:14.673Z,39.64
2023-04-12T05:22:41.256Z,39.54
2023-04-12T05:25:08.188Z,39.54
2023-04-12T05:27:34.751Z,39.57
2023-04-12T05:30:01.442Z,39.63
2023-04-12T05:32:28.010Z,39.72
2023-04-12T05:34:54.635Z,39.63
2023-04-12T05:37:21.168Z,39.62
2023-04-12T05:39:47.800Z,39.71
2023-04-12T05:42:14.406Z,39.67
2023-04-12T05:44:41.544Z,39.60
2023-04-12T05:47:08.180Z,39.88
2023-04-12T05:49:34.899Z,39.65
2023-04-12T05:52:02.314Z,39.76
2023-04-12T05:54:28.998Z,39.93
2023-04-12T05:56:55.559Z,39.77
2023-04-12T05:59:22.693Z,39.89
2023-04-12T06:01:49.363Z,39.95
2023-04-12T06:04:16.168Z,39.87
2023-04-12T06:06:43.653Z,39.89
2023-04-12T06:09:10.605Z,39.75
2023-04-12T06:11:39.235Z,39.72
2023-04-12T06:14:06.192Z,39.77
2023-04-12T06:16:32.754Z,39.76
2023-04-12T06:18:59.575Z,39.72
2023-04-12T06:21:26.773Z,39.82
2023-04-12T06:23:53.358Z,39.90
2023-04-12T06:26:19.977Z,39.89
2023-04-12T06:28:46.876Z,39.80
2023-04-12T06:31:13.434Z,39.94
2023-04-12T06:33:39.973Z,39.76
2023-04-12T06:36:07.098Z,39.84
2023-04-12T06:38:33.940Z,39.88
2023-04-12T06:41:00.685Z,39.91
2023-04-12T06:43:27.239Z,39.78
2023-04-12T06:45:54.267Z,39.84
2023-04-12T06:48:20.890Z,39.81
2023-04-12T06:50:47.563Z,39.87
2023-04-12T06:53:14.238Z,39.99
2023-04-12T06:55:41.368Z,40.07
2023-04-12T06:58:07.939Z,40.01
2023-04-12T07:00:34.848Z,40.02
2023-04-12T07:03:01.832Z,40.08
2023-04-12T07:05:28.523Z,39.94
2023-04-12T07:07:55.057Z,40.07
2023-04-12T07:10:21.540Z,40.03
2023-04-12T07:12:48.027Z,40.14
2023-04-12T07:15:14.554Z,40.14
2023-04-12T07:17:41.232Z,40.05
2023-04-12T07:20:08.035Z,40.54
2023-04-12T07:22:34.568Z,40.21
2023-04-12T07:25:01.150Z,40.40
2023-04-12T07:27:27.715Z,40.38
2023-04-12T07:29:54.602Z,40.40
2023-04-12T07:32:21.487Z,40.31
2023-04-12T07:34:48.059Z,40.46
2023-04-12T07:37:14.644Z,40.54
2023-04-12T07:39:41.374Z,40.58
2023-04-12T07:42:07.947Z,40.60
2023-04-12T07:44:37.111Z,40.61
2023-04-12T07:47:05.227Z,40.55
2023-04-12T07:49:31.726Z,40.73
2023-04-12T07:51:58.693Z,40.72
2023-04-12T07:54:28.045Z,40.70
2023-04-12T07:57:04.916Z,40.86
2023-04-12T07:59:31.964Z,40.78
2023-04-12T08:01:59.071Z,40.82
2023-04-12T08:04:25.903Z,40.90
2023-04-12T08:06:52.485Z,41.01
2023-04-12T08:09:18.997Z,40.85
2023-04-12T08:11:45.690Z,40.90
2023-04-12T08:14:12.139Z,40.81
2023-04-12T08:16:39.118Z,40.90
2023-04-12T08:19:05.582Z,41.05
2023-04-12T08:21:32.606Z,41.08
2023-04-12T08:23:59.671Z,41.06
2023-04-12T08:26:30.002Z,41.13
2023-04-12T08:28:57.743Z,41.14
2023-04-12T08:31:24.473Z,41.17
2023-04-12T08:33:51.202Z,40.98
2023-04-12T08:36:17.781Z,40.97
2023-04-12T08:38:46.401Z,40.96
2023-04-12T08:41:14.161Z,41.05
2023-04-12T08:43:45.089Z,41.12
2023-04-12T08:46:15.606Z,40.97
2023-04-12T08:48:47.140Z,41.00
2023-04-12T08:51:16.549Z,41.12
2023-04-12T08:53:43.350Z,40.99
2023-04-12T08:56:13.912Z,41.18
2023-04-12T08:58:41.827Z,41.03
2023-04-12T09:01:19.923Z,41.04
2023-04-12T09:03:47.067Z,41.08
2023-04-12T09:06:13.959Z,41.04
2023-04-12T09:08:54.593Z,43.50
2023-04-12T09:11:23.460Z,49.72
2023-04-12T09:13:50.299Z,47.81
2023-04-12T09:16:17.247Z,48.65
2023-04-12T09:18:51.263Z,48.27
2023-04-12T09:21:18.535Z,47.44
2023-04-12T09:23:45.369Z,46.65
2023-04-12T09:26:28.866Z,45.91
2023-04-12T09:28:55.456Z,45.84
2023-04-12T09:31:21.999Z,45.60
2023-04-12T09:33:48.682Z,45.53
2023-04-12T09:36:17.418Z,45.21
2023-04-12T09:39:04.379Z,45.16
2023-04-12T09:41:32.028Z,45.05
2023-04-12T09:44:01.910Z,44.86
2023-04-12T09:46:28.777Z,44.68
2023-04-12T09:48:59.102Z,44.35
2023-04-12T09:51:31.184Z,44.35
2023-04-12T09:54:03.005Z,44.50
2023-04-12T09:56:32.377Z,44.07
2023-04-12T09:59:04.406Z,43.97
2023-04-12T10:01:40.122Z,44.10
2023-04-12T10:04:08.284Z,43.76
2023-04-12T10:06:37.268Z,43.68
2023-04-12T10:09:05.041Z,43.47
2023-04-12T10:11:33.970Z,43.27
2023-04-12T10:14:02.522Z,45.14
2023-04-12T10:16:31.050Z,46.93
2023-04-12T10:19:04.184Z,47.32
2023-04-12T10:21:31.393Z,46.64
2023-04-12T10:23:58.216Z,46.24
2023-04-12T10:26:24.800Z,46.53
2023-04-12T10:29:26.396Z,46.60
2023-04-12T10:31:57.622Z,46.47
2023-04-12T10:34:28.096Z,46.58
2023-04-12T10:36:57.214Z,46.66
2023-04-12T10:39:42.244Z,46.67
2023-04-12T10:42:19.901Z,46.66
2023-04-12T10:44:47.619Z,46.22
2023-04-12T10:47:14.511Z,46.01
2023-04-12T10:49:41.429Z,46.15
2023-04-12T10:52:13.746Z,45.87
2023-04-12T10:54:40.728Z,46.00
2023-04-12T10:57:08.041Z,45.49
2023-04-12T11:00:07.216Z,45.71
2023-04-12T11:02:36.678Z,45.58
2023-04-12T11:05:11.161Z,45.59
2023-04-12T11:07:43.075Z,45.40
2023-04-12T11:10:17.301Z,45.44
2023-04-12T11:12:57.117Z,45.57
2023-04-12T11:15:27.122Z,45.23
2023-04-12T11:17:57.642Z,45.12
2023-04-12T11:20:27.225Z,44.77
2023-04-12T11:22:54.039Z,46.30
2023-04-12T11:25:20.848Z,45.69
2023-04-12T11:27:51.907Z,45.28
2023-04-12T11:30:19.956Z,45.19
2023-04-12T11:32:47.918Z,45.08
2023-04-12T11:35:20.347Z,45.03
2023-04-12T11:37:47.198Z,44.81
2023-04-12T11:40:14.757Z,44.79
2023-04-12T11:42:41.607Z,44.72
2023-04-12T11:45:15.930Z,44.71
2023-04-12T11:47:45.857Z,44.42
2023-04-12T11:50:12.590Z,44.21
2023-04-12T11:52:41.175Z,44.22
2023-04-12T11:55:11.107Z,44.32
2023-04-12T11:57:38.804Z,44.23
2023-04-12T12:00:06.559Z,44.26
2023-04-12T12:02:42.975Z,44.24
2023-04-12T12:05:16.746Z,44.13
2023-04-12T12:07:43.879Z,43.83
2023-04-12T12:10:10.784Z,43.81
2023-04-12T12:12:37.368Z,43.49
2023-04-12T12:15:04.252Z,43.40
2023-04-12T12:17:35.837Z,43.42
2023-04-12T12:20:04.731Z,43.30
2023-04-12T12:22:31.428Z,43.30
2023-04-12T12:25:00.296Z,43.16
2023-04-12T12:27:38.464Z,43.19
2023-04-12T12:30:08.452Z,43.12
2023-04-12T12:32:37.129Z,42.90
2023-04-12T12:35:09.640Z,43.07
2023-04-12T12:37:36.582Z,43.15
2023-04-12T12:40:14.149Z,43.06
2023-04-12T12:42:55.133Z,42.84
2023-04-12T12:45:24.343Z,42.60
2023-04-12T12:47:54.990Z,42.54
2023-04-12T12:50:26.830Z,42.34
2023-04-12T12:52:54.816Z,42.24
2023-04-12T12:55:22.780Z,42.25
2023-04-12T12:58:06.145Z,42.22
2023-04-12T13:00:34.624Z,42.13
2023-04-12T13:03:01.762Z,42.30
2023-04-12T13:05:28.698Z,42.41
2023-04-12T13:07:55.607Z,42.25
2023-04-12T13:10:22.287Z,42.33
2023-04-12T13:12:48.821Z,42.11
2023-04-12T13:17:45.001Z,42.05
2023-04-12T13:20:11.652Z,42.06
2023-04-12T13:22:38.351Z,42.27
2023-04-12T13:25:05.392Z,42.17
2023-04-12T13:27:32.072Z,42.04
2023-04-12T13:29:58.799Z,42.13
2023-04-12T13:32:25.908Z,42.14
2023-04-12T13:34:52.569Z,42.01
2023-04-12T13:37:19.077Z,42.09
2023-04-12T13:39:45.824Z,42.01
2023-04-12T13:42:12.491Z,42.08
2023-04-12T13:44:39.048Z,41.86
2023-04-12T13:47:05.705Z,41.65
2023-04-12T13:49:32.479Z,41.80
2023-04-12T13:51:59.010Z,41.64
2023-04-12T13:54:26.066Z,41.33
2023-04-12T13:56:52.570Z,41.42
2023-04-12T13:59:19.100Z,41.31
2023-04-12T14:01:45.832Z,41.26
2023-04-12T14:04:12.760Z,41.23
2023-04-12T14:06:39.366Z,41.07
2023-04-12T14:09:05.853Z,41.13
2023-04-12T14:11:46.117Z,41.08
2023-04-12T14:14:14.871Z,40.95
2023-04-12T14:16:43.147Z,40.91
2023-04-12T14:19:09.695Z,40.98
2023-04-12T14:21:36.528Z,40.95
2023-04-12T14:24:03.604Z,40.98
2023-04-12T14:26:30.227Z,40.91
2023-04-12T14:28:56.936Z,40.81
2023-04-12T14:31:23.710Z,40.70
2023-04-12T14:33:50.339Z,40.66
2023-04-12T14:36:17.023Z,40.77
2023-04-12T14:38:44.285Z,40.70
2023-04-12T14:41:11.552Z,40.84
2023-04-12T14:43:38.056Z,40.49
2023-04-12T14:46:04.932Z,40.78
2023-04-12T14:48:31.607Z,40.70
2023-04-12T14:50:58.223Z,40.87
2023-04-12T14:53:24.793Z,40.90
2023-04-12T14:55:51.373Z,41.18
2023-04-12T14:58:18.257Z,41.47
2023-04-12T15:00:44.768Z,41.77
2023-04-12T15:03:11.522Z,41.89
2023-04-12T15:05:38.138Z,42.04
2023-04-12T15:08:04.962Z,41.94
2023-04-12T15:10:31.747Z,42.06
2023-04-12T15:12:58.375Z,41.97
2023-04-12T15:15:24.971Z,41.96
2023-04-12T15:17:51.524Z,41.80
2023-04-12T15:20:18.105Z,41.70
2023-04-12T15:22:44.711Z,41.42
2023-04-12T15:25:11.871Z,41.47
2023-04-12T15:27:38.540Z,41.43
2023-04-12T15:30:08.287Z,41.22
2023-04-12T15:32:38.591Z,41.21
2023-04-12T15:35:22.830Z,41.10
2023-04-12T15:37:54.943Z,40.96
2023-04-12T15:40:22.994Z,40.61
2023-04-12T15:42:49.723Z,40.68
2023-04-12T15:45:16.220Z,40.55
2023-04-12T15:47:42.862Z,40.58
2023-04-12T15:50:09.752Z,40.59
2023-04-12T15:52:36.444Z,40.26
2023-04-12T15:55:04.771Z,40.41
2023-04-12T15:57:31.553Z,40.28
2023-04-12T15:59:59.533Z,40.13
2023-04-12T16:02:26.666Z,40.24
2023-04-12T16:04:56.117Z,40.10
2023-04-12T16:07:22.815Z,39.95
2023-04-12T16:09:49.508Z,39.86
2023-04-12T16:12:16.058Z,39.75
2023-04-12T16:14:42.675Z,39.57
2023-04-12T16:17:09.246Z,39.50
2023-04-12T16:19:35.916Z,39.49
2023-04-12T16:22:03.548Z,39.53
2023-04-12T16:24:30.217Z,39.45
2023-04-12T16:26:57.452Z,39.51
2023-04-12T16:29:24.417Z,39.44
2023-04-12T16:31:52.220Z,39.52
2023-04-12T16:34:21.914Z,39.37
2023-04-12T16:36:49.054Z,39.16
2023-04-12T16:39:16.587Z,39.25
2023-04-12T16:41:43.960Z,39.11
2023-04-12T16:44:10.741Z,38.93
2023-04-12T16:46:37.661Z,38.97
2023-04-12T16:49:04.826Z,39.04
2023-04-12T16:51:36.702Z,38.82
2023-04-12T16:54:04.087Z,38.72
2023-04-12T16:56:30.661Z,38.93
2023-04-12T16:58:59.008Z,38.77
2023-04-12T17:01:25.656Z,38.77
2023-04-12T17:03:52.415Z,38.68
2023-04-12T17:06:19.528Z,38.74
2023-04-12T17:08:46.636Z,38.75
2023-04-12T17:11:13.306Z,38.90
2023-04-12T17:13:39.917Z,39.00
2023-04-12T17:16:06.974Z,38.99
2023-04-12T17:18:34.709Z,39.29
2023-04-12T17:21:01.388Z,39.27
2023-04-12T17:23:28.738Z,39.25
2023-04-12T17:25:56.096Z,39.34
2023-04-12T17:28:22.612Z,39.34
2023-04-12T17:30:49.244Z,39.35
2023-04-12T17:33:18.461Z,39.40
2023-04-12T17:35:46.311Z,39.41
2023-04-12T17:38:12.965Z,39.51
2023-04-12T17:40:39.802Z,39.38
2023-04-12T17:43:06.345Z,39.27
2023-04-12T17:45:33.778Z,39.33
2023-04-12T17:48:00.468Z,39.24
2023-04-12T17:50:27.178Z,39.20
2023-04-12T17:52:55.450Z,39.16
2023-04-12T17:55:25.884Z,39.27
2023-04-12T17:57:55.376Z,39.23
2023-04-12T18:00:24.061Z,39.10
2023-04-12T18:02:51.051Z,39.11
2023-04-12T18:05:18.309Z,39.17
2023-04-12T18:07:44.787Z,38.99
2023-04-12T18:10:15.609Z,38.87
2023-04-12T18:12:44.192Z,38.80
2023-04-12T18:15:11.380Z,38.79
2023-04-12T18:17:39.742Z,38.66
2023-04-12T18:20:11.394Z,38.78
2023-04-12T18:22:38.804Z,38.65
2023-04-12T18:25:06.764Z,38.54
2023-04-12T18:27:33.353Z,38.47
2023-04-12T18:30:01.400Z,38.35
2023-04-12T18:32:28.012Z,38.28
2023-04-12T18:34:54.812Z,38.14
2023-04-12T18:37:21.654Z,38.22
2023-04-12T18:39:48.195Z,37.96
2023-04-12T18:42:14.772Z,38.01
2023-04-12T18:44:42.132Z,38.03
2023-04-12T18:47:08.941Z,37.67
2023-04-12T18:49:35.488Z,37.73
2023-04-12T18:52:02.052Z,37.69
2023-04-12T18:54:29.036Z,37.65
2023-04-12T18:56:58.009Z,37.52
2023-04-12T18:59:25.030Z,37.53
2023-04-12T19:01:51.592Z,37.24
2023-04-12T19:04:18.566Z,37.42
2023-04-12T19:06:46.308Z,37.35
2023-04-12T19:09:12.987Z,37.29
2023-04-12T19:11:40.125Z,37.00
2023-04-12T19:14:07.620Z,36.98
2023-04-12T19:16:35.188Z,36.95
2023-04-12T19:19:02.158Z,36.92
2023-04-12T19:21:28.996Z,36.86
2023-04-12T19:23:55.742Z,36.79
2023-04-12T19:26:23.018Z,36.76
2023-04-12T19:28:52.380Z,36.86
2023-04-12T19:31:19.097Z,37.02
2023-04-12T19:33:45.980Z,36.91
2023-04-12T19:36:13.212Z,36.85
2023-04-12T19:38:43.080Z,36.88
2023-04-12T19:41:09.714Z,36.81
2023-04-12T19:43:36.255Z,36.88
2023-04-12T19:46:03.733Z,36.83
2023-04-12T19:48:31.052Z,36.67
2023-04-12T19:50:58.008Z,36.71
2023-04-12T19:53:24.558Z,36.62
2023-04-12T19:55:52.447Z,36.62
2023-04-12T19:58:18.998Z,36.51
2023-04-12T20:00:51.817Z,36.57
2023-04-12T20:03:18.499Z,36.37
2023-04-12T20:05:46.037Z,36.44
2023-04-12T20:08:12.660Z,36.35
2023-04-12T20:10:39.242Z,36.25
2023-04-12T20:13:09.734Z,36.26
2023-04-12T20:15:36.481Z,36.19
2023-04-12T20:18:05.001Z,36.51
2023-04-12T20:20:32.879Z,36.09
2023-04-12T20:22:59.461Z,35.99
2023-04-12T20:25:25.938Z,35.90
2023-04-12T20:27:52.647Z,35.94
2023-04-12T20:30:21.163Z,35.87
2023-04-12T20:32:54.166Z,35.92
2023-04-12T20:35:21.595Z,35.91
2023-04-12T20:37:50.546Z,35.76
2023-04-12T20:40:18.085Z,35.67
2023-04-12T20:42:45.290Z,35.58
2023-04-12T20:45:12.229Z,35.73
2023-04-12T20:47:38.881Z,35.60
2023-04-12T20:50:06.060Z,35.44
2023-04-12T20:52:32.574Z,35.42
2023-04-12T20:54:59.072Z,35.29
2023-04-12T20:57:27.620Z,35.31
2023-04-12T20:59:55.433Z,35.36
2023-04-12T21:02:22.350Z,35.40
2023-04-12T21:04:49.182Z,35.58
2023-04-12T21:07:16.000Z,35.39
2023-04-12T21:09:42.504Z,35.36
2023-04-12T21:12:09.738Z,35.25
2023-04-12T21:14:37.788Z,35.40
2023-04-12T21:17:07.094Z,35.23
2023-04-12T21:19:38.954Z,35.17
2023-04-12T21:22:07.069Z,35.19
2023-04-12T21:24:38.168Z,35.19
2023-04-12T21:27:07.418Z,35.10
2023-04-12T21:29:41.162Z,35.16
2023-04-12T21:32:08.586Z,35.15
2023-04-12T21:34:35.559Z,35.36
2023-04-12T21:37:02.735Z,35.38
2023-04-12T21:39:29.340Z,35.34
2023-04-12T21:41:59.081Z,35.44
2023-04-12T21:44:25.772Z,35.33
2023-04-12T21:46:52.461Z,35.30
2023-04-12T21:49:18.989Z,35.41
2023-04-12T21:51:46.867Z,35.62
2023-04-12T21:54:13.448Z,35.53
2023-04-12T21:56:39.926Z,35.52
2023-04-12T21:59:07.175Z,35.67
2023-04-12T22:01:34.632Z,35.67
2023-04-12T22:04:01.502Z,35.69
2023-04-12T22:06:28.075Z,35.82
2023-04-12T22:08:55.561Z,35.84
2023-04-12T22:11:22.104Z,35.80
2023-04-12T22:13:48.630Z,35.87
2023-04-12T22:16:15.787Z,35.81
2023-04-12T22:18:47.022Z,35.91
2023-04-12T22:21:13.688Z,35.75
2023-04-12T22:23:40.702Z,35.78
2023-04-12T22:26:08.687Z,35.84
2023-04-12T22:28:38.524Z,35.79
2023-04-12T22:31:06.114Z,35.95
2023-04-12T22:33:32.773Z,35.96
2023-04-12T22:35:59.288Z,36.01
2023-04-12T22:38:25.956Z,35.89
2023-04-12T22:40:54.529Z,35.98
2023-04-12T22:43:22.838Z,35.96
2023-04-12T22:45:49.401Z,36.05
2023-04-12T22:48:15.967Z,36.07
2023-04-12T22:50:44.561Z,36.15
2023-04-12T22:53:11.540Z,36.07
2023-04-12T22:55:39.038Z,36.14
2023-04-12T22:58:07.189Z,36.06
2023-04-12T23:00:36.701Z,36.00
2023-04-12T23:03:04.234Z,35.97
2023-04-12T23:05:31.020Z,35.91
2023-04-12T23:07:57.671Z,36.14
2023-04-12T23:10:24.130Z,36.03
2023-04-12T23:12:54.630Z,36.20
2023-04-12T23:15:21.116Z,36.05
2023-04-12T23:17:49.996Z,36.08
2023-04-12T23:20:17.110Z,36.09
2023-04-12T23:22:56.697Z,36.13
2023-04-12T23:25:37.850Z,36.15
2023-04-12T23:28:13.455Z,36.15
2023-04-12T23:30:49.019Z,36.28
2023-04-12T23:33:20.660Z,36.21
2023-04-12T23:35:49.444Z,36.38
2023-04-12T23:38:23.221Z,36.18
2023-04-12T23:40:53.916Z,36.10
2023-04-12T23:43:25.043Z,36.10
2023-04-12T23:45:52.621Z,36.00
2023-04-12T23:48:19.322Z,36.33
2023-04-12T23:50:46.040Z,36.23
2023-04-12T23:53:12.988Z,36.33
2023-04-12T23:55:39.898Z,36.39
2023-04-12T23:58:06.604Z,36.30
